Time;durP1;ratioP1;P1;durP2;ratioP2;P2;SDS_P1;SDS_P2;PMS_P1;PMS_P2;Temp;Humidity;BMP_temperature;BMP_pressure;BME280_temperature;BME280_humidity;BME280_pressure;Samples;Min_cycle;Max_cycle;Signal;HPM_P1;HPM_P2
2021/06/20 00:01:00;;;;;;;10.90;5.10;;;;;;;24.80;67.88;100144.73;1808253;77;22653;-63
2021/06/20 00:03:33;;;;;;;9.33;5.58;;;;;;;24.81;67.89;100149.64;1834476;77;22176;-61
2021/06/20 00:06:26;;;;;;;9.58;5.20;;;;;;;24.78;67.85;100148.03;1807998;77;22637;-62
2021/06/20 00:09:13;;;;;;;8.75;5.40;;;;;;;24.89;67.62;100135.12;1827976;77;22116;-62
2021/06/20 00:11:48;;;;;;;5.47;4.17;;;;;;;24.89;67.60;100129.73;1820283;77;22205;-61
2021/06/20 00:14:21;;;;;;;6.47;4.30;;;;;;;24.89;67.78;100133.77;1834525;77;22164;-61
2021/06/20 00:16:54;;;;;;;6.87;4.37;;;;;;;24.81;67.94;100116.00;1823433;77;22134;-61
2021/06/20 00:19:27;;;;;;;7.40;3.95;;;;;;;24.84;67.86;100105.47;1829765;77;22155;-61
2021/06/20 00:22:00;;;;;;;6.80;3.85;;;;;;;24.84;67.83;100090.67;1852819;77;22178;-61
2021/06/20 00:24:34;;;;;;;4.80;3.58;;;;;;;24.70;67.96;100110.07;1842643;77;22585;-61
2021/06/20 00:27:20;;;;;;;7.17;4.10;;;;;;;24.63;67.98;100134.38;1792169;79;21115;-61
2021/06/20 00:30:00;;;;;;;5.95;3.50;;;;;;;24.62;67.93;100157.72;1825958;77;22225;-60
2021/06/20 00:32:33;;;;;;;5.72;3.10;;;;;;;24.60;67.92;100180.34;1852872;77;22135;-62
2021/06/20 00:35:07;;;;;;;13.88;5.35;;;;;;;24.58;67.77;100188.52;1826415;77;22625;-64
2021/06/20 00:37:55;;;;;;;7.33;3.30;;;;;;;24.55;67.77;100197.31;1746349;81;21458;-64
2021/06/20 00:40:34;;;;;;;5.95;2.90;;;;;;;24.55;67.58;100193.27;1818082;77;22229;-63
2021/06/20 00:43:07;;;;;;;6.17;2.55;;;;;;;24.48;67.51;100182.97;1841295;77;22151;-63
2021/06/20 00:45:40;;;;;;;4.25;2.60;;;;;;;24.45;67.58;100155.45;1817481;77;22670;-61
2021/06/20 00:48:13;;;;;;;5.67;2.50;;;;;;;24.42;67.59;100143.57;1852840;77;22179;-63
2021/06/20 00:50:46;;;;;;;6.15;3.00;;;;;;;24.36;67.48;100126.04;1834050;77;22202;-62
2021/06/20 00:53:20;;;;;;;4.85;2.58;;;;;;;24.28;67.59;100126.62;1811847;77;22163;-63
2021/06/20 00:56:06;;;;;;;5.75;2.55;;;;;;;24.22;67.54;100113.62;1782086;80;21574;-64
2021/06/20 00:58:40;;;;;;;3.98;2.80;;;;;;;24.26;67.54;100122.34;1834465;77;22176;-63
2021/06/20 01:01:13;;;;;;;6.17;2.67;;;;;;;24.17;67.41;100122.52;1805040;77;22719;-61
2021/06/20 01:03:46;;;;;;;3.80;2.45;;;;;;;24.09;67.37;100131.16;1821256;77;22163;-61
2021/06/20 01:06:19;;;;;;;6.05;2.70;;;;;;;23.96;67.44;100106.10;1826542;77;22201;-62
2021/06/20 01:09:05;;;;;;;4.37;2.60;;;;;;;23.76;67.62;100111.11;1792745;80;21285;-65
2021/06/20 01:11:38;;;;;;;3.90;2.05;;;;;;;23.63;68.04;100120.52;1799919;77;22207;-62
2021/06/20 01:14:12;;;;;;;4.87;2.80;;;;;;;23.58;68.19;100130.75;1832440;77;22197;-61
2021/06/20 01:16:45;;;;;;;4.30;2.50;;;;;;;23.57;68.32;100118.29;1820377;77;22526;-63
2021/06/20 01:19:32;;;;;;;5.28;2.83;;;;;;;23.52;68.36;100106.52;1789476;79;21114;-64
2021/06/20 01:22:27;;;;;;;4.90;2.45;;;;;;;23.53;68.39;100083.22;1834507;77;22176;-62
2021/06/20 01:25:04;;;;;;;4.75;2.47;;;;;;;23.51;68.39;100079.78;1844646;77;22629;-63
2021/06/20 01:27:53;;;;;;;8.73;2.50;;;;;;;23.42;68.27;100100.07;1793084;79;21170;-62
2021/06/20 01:30:29;;;;;;;7.50;2.65;;;;;;;23.39;68.35;100082.36;1806402;77;22210;-62
2021/06/20 01:33:06;;;;;;;6.78;3.08;;;;;;;23.38;68.45;100079.80;1851704;77;20138;-61
2021/06/20 01:35:40;;;;;;;4.65;2.37;;;;;;;23.33;68.46;100083.29;1817569;77;22170;-62
2021/06/20 01:38:25;;;;;;;5.95;2.40;;;;;;;23.28;68.42;100028.56;1757447;81;21155;-62
2021/06/20 01:40:58;;;;;;;4.15;2.55;;;;;;;23.27;68.32;99935.09;1813401;77;22174;-63
2021/06/20 01:43:32;;;;;;;2.60;1.77;;;;;;;23.14;68.22;99967.78;1827424;77;22179;-63
2021/06/20 01:46:05;;;;;;;5.33;2.12;;;;;;;23.07;68.47;100017.48;1830107;77;22735;-63
2021/06/20 01:48:51;;;;;;;3.45;2.10;;;;;;;23.01;68.41;100016.95;1726442;82;21154;-62
2021/06/20 01:51:24;;;;;;;3.52;1.92;;;;;;;23.00;68.48;100021.94;1807539;77;22194;-63
2021/06/20 01:53:58;;;;;;;2.42;1.70;;;;;;;23.00;68.58;100031.84;1808497;77;22178;-62
2021/06/20 01:56:44;;;;;;;3.17;1.70;;;;;;;22.95;68.53;100045.59;1718009;83;21682;-62
2021/06/20 01:59:19;;;;;;;6.97;2.00;;;;;;;22.94;68.28;100038.50;1852832;77;22175;-61
2021/06/20 02:01:52;;;;;;;5.90;2.10;;;;;;;22.88;68.23;100041.11;1837653;77;22591;-62
2021/06/20 02:04:25;;;;;;;7.22;2.55;;;;;;;22.82;68.19;100028.11;1833146;77;22195;-63
2021/06/20 02:06:58;;;;;;;2.92;1.77;;;;;;;22.78;68.17;100016.37;1830097;77;22184;-61
2021/06/20 02:09:44;;;;;;;4.47;2.00;;;;;;;22.66;68.12;100019.43;1728010;82;21173;-63
2021/06/20 02:12:23;;;;;;;4.15;1.52;;;;;;;22.62;68.18;100036.20;1833620;77;22626;-61
2021/06/20 02:14:56;;;;;;;4.45;2.10;;;;;;;22.56;68.17;100046.00;1816783;77;22189;-61
2021/06/20 02:17:31;;;;;;;4.20;1.87;;;;;;;22.51;68.19;100066.44;1822471;77;22163;-61
2021/06/20 02:20:08;;;;;;;5.10;1.80;;;;;;;22.47;68.13;100091.73;1843507;77;22170;-61
2021/06/20 02:22:55;;;;;;;;;;;;;;;22.39;68.15;100112.80;1797190;79;21170;-62
2021/06/20 02:25:28;;;;;;;4.55;1.42;;;;;;;22.40;67.91;100112.72;1813494;77;22198;-62
2021/06/20 02:28:01;;;;;;;4.58;1.70;;;;;;;22.38;67.85;100105.25;1834432;77;22129;-63
2021/06/20 02:30:34;;;;;;;2.62;1.22;;;;;;;22.39;67.67;100123.06;1818359;77;22626;-63
2021/06/20 02:33:08;;;;;;;4.53;1.70;;;;;;;22.38;67.83;100123.14;1821625;77;22174;-63
2021/06/20 02:35:41;;;;;;;4.58;1.95;;;;;;;22.35;67.81;100134.94;1835274;77;22197;-63
2021/06/20 02:38:33;;;;;;;2.98;1.40;;;;;;;22.34;67.72;100138.58;1826558;77;22641;-62
2021/06/20 02:41:06;;;;;;;4.53;1.80;;;;;;;22.34;67.78;100151.11;1805539;77;22206;-63
2021/06/20 02:43:55;;;;;;;4.45;1.62;;;;;;;22.32;67.66;100171.80;1738017;81;21119;-61
2021/06/20 02:46:28;;;;;;;5.78;1.62;;;;;;;22.37;67.79;100180.41;1806653;77;22170;-60
2021/06/20 02:49:01;;;;;;;4.10;1.72;;;;;;;22.40;67.69;100187.79;1852824;77;22621;-59
2021/06/20 02:51:34;;;;;;;2.83;1.35;;;;;;;22.19;68.08;100201.22;1793799;77;22177;-63
2021/06/20 02:54:08;;;;;;;3.87;1.30;;;;;;;22.17;68.15;100196.44;1819632;77;22175;-62
2021/06/20 02:56:53;;;;;;;3.08;1.40;;;;;;;22.11;68.06;100210.61;1761669;81;21604;-63
2021/06/20 02:59:26;;;;;;;3.62;0.90;;;;;;;22.11;67.96;100175.77;1845196;77;22116;-60
2021/06/20 03:02:00;;;;;;;1.67;1.12;;;;;;;22.05;67.60;100149.85;1818035;77;22645;-59
2021/06/20 03:04:33;;;;;;;4.08;1.12;;;;;;;22.00;67.32;100122.03;1832651;77;22171;-59
2021/06/20 03:07:06;;;;;;;2.52;1.50;;;;;;;21.87;67.22;100106.34;1833706;77;22160;-60
2021/06/20 03:09:39;;;;;;;3.92;1.30;;;;;;;21.80;67.44;100124.15;1817029;77;22143;-61
2021/06/20 03:12:12;;;;;;;4.40;1.30;;;;;;;21.80;67.53;100145.58;1832411;77;22170;-62
2021/06/20 03:14:46;;;;;;;2.83;1.30;;;;;;;21.79;67.60;100143.02;1824555;77;22234;-63
2021/06/20 03:17:19;;;;;;;3.85;1.30;;;;;;;21.80;67.72;100140.71;1813690;77;22206;-63
2021/06/20 03:20:07;;;;;;;3.60;1.72;;;;;;;21.75;68.02;100148.17;1773897;80;21158;-61
2021/06/20 03:22:41;;;;;;;6.25;1.67;;;;;;;21.76;68.30;100107.89;1834459;77;22175;-62
2021/06/20 03:25:14;;;;;;;4.62;1.65;;;;;;;21.78;68.45;100082.36;1806856;77;22215;-63
2021/06/20 03:27:47;;;;;;;3.90;1.52;;;;;;;21.77;68.71;100084.66;1830924;77;22198;-63
2021/06/20 03:30:22;;;;;;;2.80;1.52;;;;;;;21.76;69.10;100083.78;1812623;77;22183;-62
2021/06/20 03:33:09;;;;;;;4.10;1.60;;;;;;;21.74;69.30;100094.22;1788338;80;21122;-64
2021/06/20 03:35:42;;;;;;;3.85;1.82;;;;;;;21.80;69.53;100078.61;1822276;77;22229;-62
2021/06/20 03:38:15;;;;;;;6.72;1.82;;;;;;;21.82;69.88;100053.08;1820020;77;22581;-63
2021/06/20 03:40:48;;;;;;;2.55;1.65;;;;;;;21.78;70.36;100041.69;1802218;77;22245;-62
2021/06/20 03:43:34;;;;;;;5.62;2.22;;;;;;;21.76;70.36;100054.81;1762336;80;21175;-63
2021/06/20 03:46:09;;;;;;;3.42;1.75;;;;;;;21.81;70.54;100058.90;1817221;77;22190;-63
2021/06/20 03:48:42;;;;;;;6.85;1.75;;;;;;;21.83;70.69;100030.20;1834484;77;22196;-61
2021/06/20 03:51:15;;;;;;;4.42;2.37;;;;;;;21.89;70.84;99997.27;1805624;77;22175;-62
2021/06/20 03:54:01;;;;;;;4.12;2.10;;;;;;;21.89;71.16;100001.30;1761236;81;21602;-63
2021/06/20 03:56:34;;;;;;;6.12;2.25;;;;;;;22.00;71.36;100016.19;1800234;77;22223;-61
2021/06/20 03:59:11;;;;;;;5.37;2.50;;;;;;;22.13;71.23;100010.86;1821692;77;22181;-62
2021/06/20 04:01:57;;;;;;;10.70;3.55;;;;;;;22.08;71.44;100001.77;1789604;80;21162;-63
2021/06/20 04:04:30;;;;;;;4.60;2.42;;;;;;;22.13;71.77;99985.41;1818864;77;22170;-61
2021/06/20 04:07:03;;;;;;;7.25;3.22;;;;;;;22.14;71.88;99978.59;1834474;77;22172;-62
2021/06/20 04:09:36;;;;;;;9.25;2.83;;;;;;;22.17;71.85;100008.36;1827812;77;22116;-61
2021/06/20 04:12:13;;;;;;;7.97;3.98;;;;;;;22.20;72.03;100037.64;1820792;77;22652;-62
2021/06/20 04:14:58;;;;;;;7.00;3.05;;;;;;;22.21;71.88;100062.61;1706555;83;21291;-65
2021/06/20 04:17:34;;;;;;;6.35;2.98;;;;;;;22.26;71.99;100050.64;1820128;77;22161;-63
2021/06/20 04:20:10;;;;;;;9.48;3.37;;;;;;;22.28;72.02;100031.75;1802068;77;22220;-63
2021/06/20 04:22:55;;;;;;;6.25;2.98;;;;;;;22.32;71.88;100032.40;1761283;81;21677;-63
2021/06/20 04:25:29;;;;;;;6.08;3.27;;;;;;;22.52;71.53;100041.34;1832987;77;22521;-63
2021/06/20 04:28:02;;;;;;;6.37;3.00;;;;;;;22.53;71.44;100062.30;1836524;77;22116;-63
2021/06/20 04:30:35;;;;;;;8.68;3.00;;;;;;;22.61;71.17;100069.84;1833859;77;22195;-62
2021/06/20 04:33:08;;;;;;;5.37;2.95;;;;;;;22.65;71.09;100055.27;1831780;77;22137;-61
2021/06/20 04:35:41;;;;;;;7.12;3.30;;;;;;;22.65;71.08;100047.22;1810767;77;22233;-62
2021/06/20 04:38:15;;;;;;;8.65;3.10;;;;;;;22.68;70.97;100047.86;1809967;77;22159;-63
2021/06/20 04:40:49;;;;;;;7.35;3.65;;;;;;;22.71;70.90;100041.44;1805436;77;22232;-63
2021/06/20 04:43:38;;;;;;;7.85;3.40;;;;;;;22.75;70.73;100029.50;1849739;77;22614;-61
2021/06/20 04:46:22;;;;;;;4.95;3.25;;;;;;;22.77;70.46;100036.96;1753103;81;21615;-62
2021/06/20 04:49:06;;;;;;;7.10;3.92;;;;;;;22.76;70.60;100035.24;1811999;77;28414;-63
2021/06/20 04:51:41;;;;;;;5.70;3.30;;;;;;;22.90;70.20;100037.00;1790475;77;22693;-63
2021/06/20 04:54:14;;;;;;;6.55;3.45;;;;;;;22.95;69.93;100036.66;1834137;77;22203;-61
2021/06/20 04:56:47;;;;;;;6.67;3.33;;;;;;;22.98;69.70;100050.70;1809792;77;22227;-63
2021/06/20 04:59:20;;;;;;;5.22;3.12;;;;;;;23.01;69.54;100057.70;1824157;77;22155;-61
2021/06/20 05:01:53;;;;;;;4.65;2.90;;;;;;;23.01;69.35;100053.68;1840222;77;22167;-60
2021/06/20 05:04:26;;;;;;;4.37;2.75;;;;;;;23.02;69.31;100060.77;1829222;77;22159;-61
2021/06/20 05:07:05;;;;;;;3.98;2.52;;;;;;;23.04;69.20;100049.44;1837532;77;22617;-60
2021/06/20 05:09:51;;;;;;;5.65;2.72;;;;;;;23.02;69.08;100046.85;1817432;78;21225;-62
2021/06/20 05:12:24;;;;;;;6.03;2.90;;;;;;;23.08;69.08;100055.44;1835255;77;22186;-62
2021/06/20 05:14:57;;;;;;;7.12;2.85;;;;;;;23.09;68.96;100073.27;1820885;77;22218;-63
2021/06/20 05:17:43;;;;;;;7.20;2.90;;;;;;;23.06;68.97;100085.55;1759600;80;21732;-61
2021/06/20 05:20:17;;;;;;;4.67;3.35;;;;;;;23.11;68.93;100086.97;1819341;77;22206;-60
2021/06/20 05:22:50;;;;;;;5.08;3.12;;;;;;;23.13;68.88;100081.02;1827398;77;22180;-63
2021/06/20 05:25:24;;;;;;;8.13;4.70;;;;;;;23.17;68.84;100073.59;1815543;77;23223;-63
2021/06/20 05:28:10;;;;;;;6.55;4.17;;;;;;;23.16;68.90;100068.72;1790841;80;21131;-62
2021/06/20 05:30:45;;;;;;;6.62;3.37;;;;;;;23.25;68.91;100067.70;1816316;77;22202;-64
2021/06/20 05:33:18;;;;;;;7.83;3.05;;;;;;;23.29;69.00;100071.42;1795287;77;22208;-64
2021/06/20 05:35:52;;;;;;;6.40;2.87;;;;;;;23.36;69.31;100073.68;1790236;77;22224;-59
2021/06/20 05:38:38;;;;;;;5.75;2.90;;;;;;;23.39;69.34;100076.99;1743440;81;21506;-61
2021/06/20 05:41:11;;;;;;;4.95;2.80;;;;;;;23.51;69.39;100074.41;1826729;77;22193;-64
2021/06/20 05:43:44;;;;;;;5.95;3.50;;;;;;;23.61;69.63;100079.50;1807142;77;22142;-64
2021/06/20 05:46:19;;;;;;;7.00;3.33;;;;;;;23.67;69.51;100062.91;1794560;77;22216;-63
2021/06/20 05:48:52;;;;;;;5.83;3.20;;;;;;;23.75;69.65;100069.94;1819845;77;22184;-59
2021/06/20 05:51:38;;;;;;;4.75;2.58;;;;;;;23.79;69.71;100067.03;1766962;80;21190;-60
2021/06/20 05:54:11;;;;;;;12.93;3.40;;;;;;;23.89;69.94;100056.83;1810462;77;22123;-59
2021/06/20 05:56:44;;;;;;;9.35;4.20;;;;;;;23.97;69.86;100061.66;1804495;77;22203;-59
2021/06/20 05:59:17;;;;;;;4.45;3.05;;;;;;;23.90;70.05;100064.42;1826943;77;22551;-58
2021/06/20 06:02:03;;;;;;;7.92;3.40;;;;;;;24.01;69.87;100065.00;1740706;81;21315;-60
2021/06/20 06:04:37;;;;;;;6.47;3.40;;;;;;;23.95;70.39;100054.66;1816173;77;22194;-63
2021/06/20 06:07:10;;;;;;;7.33;3.25;;;;;;;23.95;71.06;100064.95;1818409;77;22178;-58
2021/06/20 06:09:43;;;;;;;7.00;3.33;;;;;;;24.03;70.82;100057.68;1814505;77;22163;-63
2021/06/20 06:12:29;;;;;;;7.70;3.60;;;;;;;24.00;70.75;100057.91;1766315;80;21151;-59
2021/06/20 06:15:03;;;;;;;9.40;3.92;;;;;;;24.20;70.17;100076.11;1806435;77;22613;-62
2021/06/20 06:17:36;;;;;;;6.00;3.10;;;;;;;24.32;69.67;100068.08;1824589;77;22211;-61
2021/06/20 06:20:11;;;;;;;5.47;3.45;;;;;;;24.38;69.38;100070.81;1834426;77;22621;-58
2021/06/20 06:22:57;;;;;;;5.97;3.55;;;;;;;24.34;69.83;100076.89;1790729;80;21170;-63
2021/06/20 06:25:31;;;;;;;6.70;3.77;;;;;;;24.46;69.54;100067.06;1819464;77;22158;-62
2021/06/20 06:28:04;;;;;;;9.68;4.30;;;;;;;24.42;69.70;100068.27;1823112;77;22159;-61
2021/06/20 06:30:37;;;;;;;8.85;4.03;;;;;;;24.53;69.14;100064.25;1809306;77;22650;-61
2021/06/20 06:33:17;;;;;;;11.80;4.22;;;;;;;24.56;68.98;100050.56;1833652;77;22140;-58
2021/06/20 06:35:50;;;;;;;7.15;3.55;;;;;;;24.56;68.70;100055.10;1831862;77;22221;-61
2021/06/20 06:38:23;;;;;;;8.63;4.10;;;;;;;24.57;68.97;100056.31;1833642;77;22200;-61
2021/06/20 06:40:57;;;;;;;8.85;3.77;;;;;;;24.63;68.96;100055.00;1785227;77;22660;-61
2021/06/20 06:43:45;;;;;;;9.83;3.60;;;;;;;24.64;68.89;100048.66;1758356;81;21115;-58
2021/06/20 06:46:18;;;;;;;7.05;3.77;;;;;;;24.65;69.37;100053.06;1815844;77;22617;-58
2021/06/20 06:48:51;;;;;;;6.97;4.28;;;;;;;24.72;69.25;100044.05;1834002;77;22174;-61
2021/06/20 06:51:24;;;;;;;7.12;4.40;;;;;;;24.67;69.71;100047.07;1807545;77;22170;-57
2021/06/20 06:53:57;;;;;;;12.23;4.65;;;;;;;24.82;69.65;100038.33;1822673;77;22605;-57
2021/06/20 06:56:30;;;;;;;5.95;3.65;;;;;;;25.00;70.08;100039.19;1801719;77;22163;-57
2021/06/20 06:59:03;;;;;;;10.15;4.20;;;;;;;25.18;70.57;100032.36;1821299;77;22163;-57
2021/06/20 07:01:36;;;;;;;10.05;5.12;;;;;;;25.49;71.46;100031.27;1799281;77;22199;-58
2021/06/20 07:04:10;;;;;;;10.85;5.40;;;;;;;25.87;70.71;100027.78;1834369;77;22636;-61
2021/06/20 07:06:43;;;;;;;7.87;4.20;;;;;;;26.35;70.30;100013.03;1814111;77;22248;-61
2021/06/20 07:09:30;;;;;;;7.03;3.80;;;;;;;26.49;69.47;100025.38;1761354;81;21119;-62
2021/06/20 07:12:04;;;;;;;8.55;4.05;;;;;;;26.74;69.14;100016.51;1834423;77;22592;-61
2021/06/20 07:14:38;;;;;;;9.50;3.98;;;;;;;27.01;69.14;100013.28;1849792;77;22163;-61
2021/06/20 07:17:13;;;;;;;10.45;3.80;;;;;;;27.33;67.69;100012.78;1800722;77;22166;-61
2021/06/20 07:19:46;;;;;;;7.25;3.85;;;;;;;27.65;66.75;100014.94;1829584;77;22194;-61
2021/06/20 07:22:32;;;;;;;13.65;3.90;;;;;;;27.87;66.15;100016.06;1761706;80;21123;-62
2021/06/20 07:25:07;;;;;;;7.37;3.37;;;;;;;28.25;65.32;100020.33;1825202;77;22249;-61
2021/06/20 07:27:40;;;;;;;10.50;3.00;;;;;;;28.62;63.75;100028.19;1852649;77;22182;-61
2021/06/20 07:30:16;;;;;;;9.90;3.30;;;;;;;28.91;62.72;100040.34;1831683;78;22233;-61
2021/06/20 07:32:49;;;;;;;9.43;4.00;;;;;;;29.22;61.98;100036.55;1818690;77;28447;-60
2021/06/20 07:35:23;;;;;;;10.68;3.35;;;;;;;29.38;60.58;100040.84;1807722;77;22594;-61
2021/06/20 07:37:56;;;;;;;11.28;5.05;;;;;;;29.48;59.63;100038.59;1834362;77;22175;-61
2021/06/20 07:40:29;;;;;;;13.72;3.55;;;;;;;29.55;58.87;100042.92;1833298;77;22171;-61
2021/06/20 07:43:02;;;;;;;9.35;3.40;;;;;;;29.70;57.31;100040.03;1833470;77;22192;-61
2021/06/20 07:45:37;;;;;;;15.28;3.87;;;;;;;29.72;56.83;100042.61;1818501;77;22170;-61
2021/06/20 07:48:24;;;;;;;12.53;4.35;;;;;;;29.73;55.81;100054.65;1761767;80;21183;-62
2021/06/20 07:50:58;;;;;;;8.48;4.00;;;;;;;29.75;54.95;100042.30;1812507;77;22226;-61
2021/06/20 07:53:32;;;;;;;13.68;3.17;;;;;;;29.66;54.13;100042.69;1834367;77;22200;-61
2021/06/20 07:56:06;;;;;;;13.22;3.92;;;;;;;29.74;54.62;100046.02;1811741;77;22661;-61
2021/06/20 07:58:56;;;;;;;12.05;3.22;;;;;;;29.80;54.35;100048.97;1761694;80;21158;-62
2021/06/20 08:01:29;;;;;;;9.90;3.00;;;;;;;30.01;53.95;100047.02;1824646;77;22205;-61
2021/06/20 08:04:02;;;;;;;9.23;3.00;;;;;;;30.14;53.55;100047.49;1834369;77;22184;-60
2021/06/20 08:06:35;;;;;;;8.63;3.10;;;;;;;30.31;52.88;100043.06;1805049;77;22202;-58
2021/06/20 08:09:08;;;;;;;10.32;3.95;;;;;;;30.23;52.83;100045.70;1828873;77;22115;-61
2021/06/20 08:11:54;;;;;;;14.93;3.65;;;;;;;30.35;52.76;100045.81;1761844;81;21187;-62
2021/06/20 08:14:28;;;;;;;12.10;3.80;;;;;;;30.68;52.67;100046.63;1852060;77;22175;-58
2021/06/20 08:17:01;;;;;;;9.98;3.20;;;;;;;30.84;51.85;100054.88;1834309;77;22140;-61
2021/06/20 08:19:34;;;;;;;12.53;3.80;;;;;;;30.92;51.13;100060.02;1832739;77;22174;-61
2021/06/20 08:22:08;;;;;;;16.05;3.80;;;;;;;31.00;50.29;100062.28;1834425;77;22531;-61
2021/06/20 08:24:42;;;;;;;13.85;3.75;;;;;;;30.89;50.02;100058.49;1820767;77;22190;-61
2021/06/20 08:27:28;;;;;;;12.23;3.75;;;;;;;30.84;49.80;100063.55;1745035;80;21276;-62
2021/06/20 08:30:02;;;;;;;13.43;3.37;;;;;;;31.02;49.97;100058.06;1820297;77;22218;-61
2021/06/20 08:32:35;;;;;;;13.50;3.85;;;;;;;31.21;50.43;100053.42;1818479;77;22201;-61
2021/06/20 08:35:11;;;;;;;12.55;3.42;;;;;;;31.61;49.39;100060.06;1813518;77;22183;-61
2021/06/20 08:37:44;;;;;;;19.52;4.45;;;;;;;31.90;49.04;100057.48;1829915;77;28375;-61
2021/06/20 08:40:30;;;;;;;10.18;3.55;;;;;;;32.17;48.02;100061.78;1782922;78;21602;-63
2021/06/20 08:43:04;;;;;;;10.70;3.08;;;;;;;32.43;47.39;100051.80;1834424;77;22181;-62
2021/06/20 08:45:37;;;;;;;10.98;3.83;;;;;;;32.56;46.74;100057.56;1812935;77;22218;-61
2021/06/20 08:48:11;;;;;;;15.72;4.28;;;;;;;32.69;46.41;100050.22;1815809;77;22150;-61
2021/06/20 08:50:57;;;;;;;13.72;3.20;;;;;;;32.70;46.23;100057.91;1759414;80;21174;-61
2021/06/20 08:53:30;;;;;;;14.13;3.58;;;;;;;32.80;45.76;100040.87;1818186;77;22139;-59
2021/06/20 08:56:05;;;;;;;9.93;3.10;;;;;;;32.86;45.86;100037.48;1811267;77;22234;-59
2021/06/20 08:58:51;;;;;;;19.23;3.87;;;;;;;33.06;45.58;100039.81;1740344;80;21106;-60
2021/06/20 09:01:24;;;;;;;11.90;2.85;;;;;;;33.30;44.91;100032.59;1824391;77;22221;-60
2021/06/20 09:03:57;;;;;;;16.12;3.90;;;;;;;33.25;44.95;100030.37;1852701;77;22163;-59
2021/06/20 09:06:31;;;;;;;14.78;3.25;;;;;;;33.53;44.48;100033.20;1794925;77;22241;-59
2021/06/20 09:09:08;;;;;;;11.80;3.40;;;;;;;33.74;44.49;100033.94;1834397;77;22211;-61
2021/06/20 09:11:42;;;;;;;12.07;3.20;;;;;;;33.90;44.05;100032.48;1803797;77;22533;-61
2021/06/20 09:14:28;;;;;;;13.10;3.05;;;;;;;34.07;43.24;100041.44;1758802;80;21559;-61
2021/06/20 09:17:02;;;;;;;10.13;2.80;;;;;;;34.35;42.96;100038.14;1824889;77;22192;-61
2021/06/20 09:19:36;;;;;;;17.35;4.17;;;;;;;34.53;42.78;100038.38;1818600;77;22186;-61
2021/06/20 09:22:09;;;;;;;11.90;2.90;;;;;;;34.80;42.32;100038.30;1834147;77;22227;-62
2021/06/20 09:24:43;;;;;;;16.87;3.92;;;;;;;35.11;42.12;100031.83;1819072;77;22207;-61
2021/06/20 09:27:16;;;;;;;11.78;3.60;;;;;;;35.44;41.46;100036.89;1852487;77;22199;-62
2021/06/20 09:30:15;;;;;;;11.33;2.62;;;;;;;35.71;41.17;100039.14;1692141;81;21873;-62
2021/06/20 09:32:57;;;;;;;14.25;3.52;;;;;;;36.17;40.02;100040.73;1832305;77;22171;-62
2021/06/20 09:35:43;;;;;;;15.08;3.67;;;;;;;36.41;39.01;100040.84;1803682;77;22248;-61
2021/06/20 09:38:31;;;;;;;14.13;3.20;;;;;;;36.42;38.75;100041.68;1760182;81;22396;-62
2021/06/20 09:41:10;;;;;;;16.77;4.15;;;;;;;36.55;38.62;100036.86;1795855;77;28605;-61
2021/06/20 09:43:54;;;;;;;20.52;3.83;;;;;;;36.66;38.11;100033.58;1826941;77;22162;-62
2021/06/20 09:46:40;;;;;;;20.25;3.80;;;;;;;36.74;37.91;100036.69;1760214;80;21648;-61
2021/06/20 09:49:14;;;;;;;14.68;3.87;;;;;;;36.84;37.20;100028.96;1833164;77;22196;-61
2021/06/20 09:51:53;;;;;;;17.82;4.60;;;;;;;36.77;36.91;100025.32;1813567;77;22688;-62
2021/06/20 10:02:54;;;;;;;12.18;3.92;;;;;;;36.46;37.30;100018.33;1829224;77;22151;-61
2021/06/20 10:05:27;;;;;;;18.25;3.90;;;;;;;36.37;37.76;100018.13;1820424;77;22175;-62
2021/06/20 10:08:06;;;;;;;18.82;4.70;;;;;;;36.52;37.83;100014.83;1833646;77;22160;-61
2021/06/20 10:10:39;;;;;;;16.60;4.80;;;;;;;36.66;37.30;100008.05;1812685;77;22195;-62
2021/06/20 10:13:13;;;;;;;20.62;6.05;;;;;;;36.59;36.78;100005.27;1831587;77;22147;-61
2021/06/20 10:15:46;;;;;;;24.82;4.95;;;;;;;36.42;37.04;100000.58;1816166;77;22194;-62
2021/06/20 10:18:19;;;;;;;19.02;4.25;;;;;;;36.44;37.24;100000.69;1834053;77;22203;-60
2021/06/20 10:28:14;;;;;;;18.02;4.17;;;;;;;36.89;36.77;99998.19;1841767;77;22124;-60
2021/06/20 10:30:48;;;;;;;20.30;5.00;;;;;;;36.86;36.74;99995.88;1833362;77;23206;-60
2021/06/20 10:33:26;;;;;;;20.80;5.22;;;;;;;36.81;36.73;99990.98;1829235;77;22547;-60
2021/06/20 10:36:13;;;;;;;25.82;5.40;;;;;;;36.57;36.86;99997.77;1751075;80;21166;-60
2021/06/20 10:38:46;;;;;;;22.25;5.25;;;;;;;36.38;37.17;99996.54;1826314;77;22223;-60
2021/06/20 10:41:28;;;;;;;21.70;5.22;;;;;;;36.16;37.13;99987.83;1798764;77;22175;-61
2021/06/20 10:44:14;;;;;;;18.55;4.92;;;;;;;35.99;37.11;99991.36;1756438;82;21169;-60
2021/06/20 10:54:03;;;;;;;22.55;6.08;;;;;;;34.97;38.29;100000.73;1832954;77;22568;-59
2021/06/20 10:56:36;;;;;;;30.45;7.90;;;;;;;34.75;38.69;99998.88;1787716;77;22209;-61
2021/06/20 10:59:23;;;;;;;34.83;6.47;;;;;;;34.50;39.08;100008.16;1750229;81;21687;-60
2021/06/20 11:01:57;;;;;;;28.87;7.03;;;;;;;34.23;39.76;100007.70;1834382;77;22183;-60
2021/06/20 11:04:41;;;;;;;34.45;7.33;;;;;;;33.95;40.12;100008.27;1828164;77;22198;-61
2021/06/20 11:07:26;;;;;;;30.17;6.55;;;;;;;33.74;40.53;100005.28;1848085;77;22159;-61
2021/06/20 11:10:11;;;;;;;29.67;7.30;;;;;;;33.54;40.95;100011.21;1783456;80;21607;-60
2021/06/20 11:12:55;;;;;;;31.42;6.53;;;;;;;33.36;41.47;100003.22;1834500;77;22180;-60
2021/06/20 11:15:28;;;;;;;28.07;6.83;;;;;;;33.18;41.88;100007.06;1805682;77;22534;-60
2021/06/20 11:18:08;;;;;;;23.80;6.33;;;;;;;33.03;42.30;100002.00;1824342;77;22123;-60
2021/06/20 11:20:41;;;;;;;23.45;5.85;;;;;;;32.86;42.48;99999.34;1817169;77;22183;-60
2021/06/20 11:23:15;;;;;;;28.77;6.83;;;;;;;32.75;42.69;100000.50;1826618;77;22183;-61
2021/06/20 11:25:53;;;;;;;26.50;6.58;;;;;;;32.69;42.79;99996.27;1812572;77;22594;-61
2021/06/20 11:28:39;;;;;;;29.95;5.28;;;;;;;32.61;42.96;99997.14;1792787;80;21767;-62
2021/06/20 11:31:12;;;;;;;27.07;6.25;;;;;;;32.57;43.37;100001.23;1828127;77;22174;-61
2021/06/20 11:33:51;;;;;;;26.68;7.40;;;;;;;32.45;43.56;100007.02;1796358;77;22210;-61
2021/06/20 11:36:27;;;;;;;33.15;6.70;;;;;;;32.37;43.67;99999.38;1820582;77;22194;-60
2021/06/20 11:39:14;;;;;;;23.80;6.17;;;;;;;32.24;43.96;100001.19;1736868;81;21159;-62
2021/06/20 11:41:50;;;;;;;29.35;5.92;;;;;;;32.09;44.26;100005.10;1826563;77;22187;-60
2021/06/20 11:44:23;;;;;;;33.42;7.87;;;;;;;31.98;44.57;100003.56;1819829;77;28120;-61
2021/06/20 11:47:09;;;;;;;35.90;7.72;;;;;;;31.83;44.71;100009.66;1727808;83;21155;-62
2021/06/20 11:49:42;;;;;;;29.45;6.53;;;;;;;31.74;44.98;100007.44;1829961;77;22172;-61
2021/06/20 11:52:16;;;;;;;31.25;6.53;;;;;;;31.48;45.39;100010.22;1825474;77;22207;-61
2021/06/20 11:54:49;;;;;;;26.20;6.60;;;;;;;31.36;45.66;100012.88;1829078;77;22634;-61
2021/06/20 11:57:34;;;;;;;28.50;5.75;;;;;;;31.39;45.50;100017.50;1745351;81;21162;-62
2021/06/20 12:00:12;;;;;;;26.30;5.45;;;;;;;31.28;45.72;100012.34;1839922;77;22213;-61
2021/06/20 12:02:48;;;;;;;26.05;5.80;;;;;;;31.16;46.01;100013.15;1825854;77;22158;-60
2021/06/20 12:05:21;;;;;;;36.17;6.67;;;;;;;31.03;46.37;100011.34;1821752;77;22210;-60
2021/06/20 12:08:07;;;;;;;27.87;5.53;;;;;;;30.91;46.48;100017.56;1761135;81;21281;-61
2021/06/20 12:10:45;;;;;;;28.83;6.20;;;;;;;30.86;46.56;100015.34;1808429;77;22233;-60
2021/06/20 12:13:19;;;;;;;31.55;6.85;;;;;;;30.91;46.46;100018.92;1852809;77;22171;-61
2021/06/20 12:16:05;;;;;;;22.42;5.62;;;;;;;30.89;46.41;100021.81;1802842;78;21640;-62
2021/06/20 12:18:38;;;;;;;28.85;5.00;;;;;;;30.70;46.81;100021.49;1831097;77;22589;-61
2021/06/20 12:21:27;;;;;;;30.72;6.58;;;;;;;30.58;47.12;100022.78;1787909;77;22229;-61
2021/06/20 12:24:01;;;;;;;24.72;5.65;;;;;;;30.59;47.15;100024.49;1834504;77;22164;-61
2021/06/20 12:26:50;;;;;;;31.30;6.20;;;;;;;30.39;47.61;100030.93;1729223;81;21165;-62
2021/06/20 12:29:31;;;;;;;21.12;6.80;;;;;;;30.35;48.04;100030.02;1833846;77;22144;-60